Time;durP1;ratioP1;P1;durP2;ratioP2;P2;SDS_P1;SDS_P2;PMS_P1;PMS_P2;Temp;Humidity;BMP_temperature;BMP_pressure;BME280_temperature;BME280_humidity;BME280_pressure;Samples;Min_cycle;Max_cycle;Signal;HPM_P1;HPM_P2
2023/06/08 00:02:04;;;;;;;2.03;1.63;;;;;;;16.55;100.00;100589.09;4984191;28;20057;-72
2023/06/08 00:04:33;;;;;;;5.43;1.98;;;;;;;16.68;100.00;100611.78;4981977;28;20043;-72
2023/06/08 00:07:03;;;;;;;3.42;2.05;;;;;;;16.23;100.00;100530.66;4979419;28;20051;-71
2023/06/08 00:09:29;;;;;;;4.30;1.70;;;;;;;17.27;100.00;100712.13;4976364;28;20042;-72
2023/06/08 00:11:55;;;;;;;4.15;2.00;;;;;;;16.64;100.00;100682.50;4980577;28;20080;-73
2023/06/08 00:14:20;;;;;;;3.60;1.60;;;;;;;15.56;100.00;100600.72;4979979;28;20061;-72
2023/06/08 00:16:48;;;;;;;2.92;1.55;;;;;;;15.98;100.00;100714.69;4978699;28;20093;-70
2023/06/08 00:19:14;;;;;;;3.85;2.50;;;;;;;15.91;100.00;100711.25;4978834;28;20046;-71
2023/06/08 00:21:43;;;;;;;4.50;1.88;;;;;;;15.31;100.00;100621.41;4978828;28;20058;-70
2023/06/08 00:24:09;;;;;;;3.30;1.85;;;;;;;15.22;100.00;100640.97;4979936;28;20034;-69
2023/06/08 00:26:35;;;;;;;2.90;1.70;;;;;;;15.54;100.00;100706.53;4974359;28;20785;-71
2023/06/08 00:29:01;;;;;;;4.57;2.28;;;;;;;14.91;100.00;100614.09;4978665;28;20054;-70
2023/06/08 00:31:26;;;;;;;6.63;2.20;;;;;;;14.88;100.00;100612.38;4981302;28;20077;-71
2023/06/08 00:33:52;;;;;;;3.63;1.67;;;;;;;15.24;100.00;100683.22;4975599;28;20070;-70
2023/06/08 00:36:17;;;;;;;3.85;2.05;;;;;;;14.56;100.00;100570.56;4979425;28;20041;-70
2023/06/08 00:38:43;;;;;;;3.72;2.40;;;;;;;14.94;100.00;100667.78;4976753;28;20053;-69
2023/06/08 00:41:08;;;;;;;2.92;1.70;;;;;;;14.35;100.00;100585.78;4978838;28;20061;-69
2023/06/08 00:43:34;;;;;;;3.05;2.03;;;;;;;15.06;100.00;100702.88;4978319;28;20454;-70
2023/06/08 00:46:02;;;;;;;4.15;2.40;;;;;;;14.69;100.00;100661.94;4981748;28;20050;-70
2023/06/08 00:48:28;;;;;;;5.00;2.15;;;;;;;14.25;100.00;100593.81;4976979;28;20254;-71
2023/06/08 00:50:58;;;;;;;3.85;2.53;;;;;;;14.82;100.00;100688.19;4981133;28;20506;-72
2023/06/08 00:53:24;;;;;;;5.10;2.55;;;;;;;14.98;100.00;100705.59;4970822;28;20054;-72
2023/06/08 00:55:51;;;;;;;4.80;2.97;;;;;;;14.56;100.00;100633.94;4979005;28;20422;-71
2023/06/08 00:58:18;;;;;;;4.15;2.58;;;;;;;14.55;100.00;100654.19;4976256;28;20062;-72
2023/06/08 01:00:46;;;;;;;4.45;2.70;;;;;;;13.91;100.00;100562.56;4970098;28;20046;-72
2023/06/08 01:03:14;;;;;;;7.45;2.20;;;;;;;14.62;100.00;100672.63;4989182;28;20064;-73
2023/06/08 01:05:44;;;;;;;4.97;2.03;;;;;;;14.68;100.00;100691.91;4972725;28;20050;-74
2023/06/08 01:08:44;;;;;;;4.35;2.10;;;;;;;14.96;100.00;100702.09;4978759;28;20047;-72
2023/06/08 01:12:05;;;;;;;6.80;2.60;;;;;;;14.52;100.00;100687.66;4963635;28;20540;-74
2023/06/08 01:14:52;;;;;;;2.70;1.73;;;;;;;14.81;100.00;100694.38;4955617;28;20499;-71
2023/06/08 01:17:24;;;;;;;3.25;2.15;;;;;;;14.45;100.00;100680.72;4974403;28;20082;-72
2023/06/08 01:20:11;;;;;;;4.47;2.47;;;;;;;14.52;100.00;100692.94;4980068;28;20890;-72
2023/06/08 01:22:58;;;;;;;4.95;2.53;;;;;;;14.49;100.00;100690.31;4975999;28;20464;-74
2023/06/08 01:25:28;;;;;;;11.52;2.83;;;;;;;14.14;100.00;100655.53;4980535;28;20529;-73
2023/06/08 01:28:13;;;;;;;3.15;1.77;;;;;;;13.09;100.00;100493.94;4974219;28;20047;-73
2023/06/08 01:30:41;;;;;;;5.25;2.45;;;;;;;13.90;100.00;100624.13;4994888;28;20037;-73
2023/06/08 01:33:08;;;;;;;4.80;2.22;;;;;;;13.86;100.00;100649.66;4979496;28;20042;-74
2023/06/08 01:35:34;;;;;;;5.25;3.10;;;;;;;14.01;100.00;100684.69;4981530;28;20125;-73
2023/06/08 01:38:09;;;;;;;6.35;2.80;;;;;;;13.37;100.00;100576.28;4972777;28;20046;-72
2023/06/08 01:40:40;;;;;;;3.55;2.20;;;;;;;13.96;100.00;100671.56;4990207;28;20093;-74
2023/06/08 01:43:09;;;;;;;5.28;3.08;;;;;;;13.23;100.00;100539.47;4979834;28;20054;-73
2023/06/08 01:45:42;;;;;;;4.45;2.78;;;;;;;13.38;100.00;100587.69;4977222;28;20049;-71
2023/06/08 01:48:09;;;;;;;5.03;2.10;;;;;;;13.25;100.00;100573.69;4985192;28;20101;-72
2023/06/08 01:50:35;;;;;;;3.28;2.40;;;;;;;13.15;100.00;100566.78;4972364;28;20136;-72
2023/06/08 01:53:01;;;;;;;3.22;2.10;;;;;;;13.18;100.00;100558.84;4979971;28;20050;-73
2023/06/08 01:55:29;;;;;;;4.93;2.42;;;;;;;13.01;100.00;100562.47;4983005;28;20049;-73
2023/06/08 01:57:55;;;;;;;6.13;2.95;;;;;;;13.49;100.00;100673.72;4979048;28;20050;-72
2023/06/08 02:00:21;;;;;;;3.88;2.40;;;;;;;13.65;100.00;100685.03;4976619;28;20049;-71
2023/06/08 02:02:47;;;;;;;3.42;2.30;;;;;;;13.43;100.00;100657.94;4979182;28;20060;-72
2023/06/08 02:05:14;;;;;;;4.57;2.35;;;;;;;13.33;100.00;100634.31;4980664;28;20104;-70
2023/06/08 02:07:41;;;;;;;5.38;2.70;;;;;;;13.69;100.00;100701.66;4978388;28;20129;-70
2023/06/08 02:10:08;;;;;;;4.47;2.83;;;;;;;13.51;100.00;100658.75;4980366;28;20076;-71
2023/06/08 02:12:34;;;;;;;6.20;2.65;;;;;;;13.44;100.00;100674.66;4977656;28;20045;-71
2023/06/08 02:14:59;;;;;;;4.47;2.72;;;;;;;13.59;100.00;100681.56;4981231;28;20030;-71
2023/06/08 02:17:29;;;;;;;3.75;2.70;;;;;;;13.50;100.00;100658.75;4980130;28;20042;-72
2023/06/08 02:19:55;;;;;;;5.35;2.83;;;;;;;12.94;100.00;100567.81;4983120;28;20050;-72
2023/06/08 02:22:20;;;;;;;4.40;3.08;;;;;;;12.79;100.00;100553.88;4975652;28;20103;-71
2023/06/08 02:24:47;;;;;;;5.95;3.00;;;;;;;12.74;100.00;100550.41;4999105;28;20137;-71
2023/06/08 02:27:13;;;;;;;13.07;2.63;;;;;;;12.83;100.00;100584.56;4981540;28;20034;-71
2023/06/08 02:29:42;;;;;;;6.38;3.10;;;;;;;13.37;100.00;100652.72;4978821;28;20058;-72
2023/06/08 02:32:08;;;;;;;4.03;2.65;;;;;;;13.29;100.00;100657.16;4970627;28;20047;-71
2023/06/08 02:34:38;;;;;;;5.00;3.58;;;;;;;13.37;100.00;100665.00;4982500;28;20352;-74
2023/06/08 02:37:04;;;;;;;3.50;2.28;;;;;;;13.40;100.00;100667.63;4979475;28;20046;-71
2023/06/08 02:39:30;;;;;;;6.32;2.95;;;;;;;13.49;100.00;100663.16;4977136;28;20034;-70
2023/06/08 02:41:56;;;;;;;4.47;3.13;;;;;;;13.37;100.00;100646.56;4977809;28;20405;-69
2023/06/08 02:44:21;;;;;;;6.78;3.58;;;;;;;13.59;100.00;100671.88;4962422;28;20066;-72
2023/06/08 02:46:47;;;;;;;5.30;2.45;;;;;;;13.23;100.00;100622.94;4970660;28;20050;-72
2023/06/08 02:49:13;;;;;;;5.45;3.13;;;;;;;13.43;100.00;100657.94;4980784;28;20467;-70
2023/06/08 02:51:38;;;;;;;5.05;2.75;;;;;;;13.62;100.00;100669.19;4978526;28;20050;-71
2023/06/08 02:54:04;;;;;;;5.30;3.35;;;;;;;12.98;100.00;100562.50;4978946;28;20050;-71
2023/06/08 02:56:30;;;;;;;4.43;2.40;;;;;;;13.06;100.00;100578.25;4979633;28;20056;-70
2023/06/08 02:58:56;;;;;;;15.30;3.90;;;;;;;13.64;100.00;100685.88;4972034;28;20047;-69
2023/06/08 03:01:22;;;;;;;4.97;2.65;;;;;;;13.47;100.00;100666.72;4975180;28;20038;-71
2023/06/08 03:03:48;;;;;;;7.47;3.42;;;;;;;13.01;100.00;100612.53;4979485;28;21111;-72
2023/06/08 03:06:17;;;;;;;5.85;3.10;;;;;;;12.90;100.00;100569.59;4984892;28;20646;-73
2023/06/08 03:08:53;;;;;;;3.15;2.20;;;;;;;13.57;100.00;100688.59;4973409;28;20779;-73
2023/06/08 03:11:20;;;;;;;5.20;3.08;;;;;;;13.66;100.00;100655.09;4979466;28;20134;-76
2023/06/08 03:13:45;;;;;;;6.90;3.55;;;;;;;12.49;100.00;100467.22;4981208;28;20046;-72
2023/06/08 03:16:12;;;;;;;4.78;2.60;;;;;;;13.63;100.00;100686.78;4980213;28;20471;-71
2023/06/08 03:18:39;;;;;;;4.13;3.35;;;;;;;13.02;100.00;100584.44;4978790;28;20109;-71
2023/06/08 03:21:07;;;;;;;3.92;2.65;;;;;;;13.62;100.00;100677.09;4981011;28;20038;-70
2023/06/08 03:23:37;;;;;;;5.05;3.45;;;;;;;12.94;100.00;100541.47;5011273;28;20109;-69
2023/06/08 03:26:03;;;;;;;6.78;3.03;;;;;;;13.54;100.00;100647.31;4980625;28;20051;-70
2023/06/08 03:28:28;;;;;;;9.93;4.22;;;;;;;13.21;100.00;100564.09;4982698;28;20826;-71
2023/06/08 03:30:54;;;;;;;6.90;3.17;;;;;;;13.96;100.00;100674.19;4980795;28;20573;-72
2023/06/08 03:33:20;;;;;;;4.97;3.38;;;;;;;13.89;100.00;100646.13;4976795;28;20145;-70
2023/06/08 03:35:46;;;;;;;4.45;2.80;;;;;;;14.15;100.00;100651.13;4979146;28;20648;-71
2023/06/08 03:38:12;;;;;;;4.18;2.47;;;;;;;14.51;100.00;100692.06;4982156;28;20477;-70
2023/06/08 03:40:37;;;;;;;6.35;3.75;;;;;;;14.12;100.00;100603.66;4978410;28;20058;-74
2023/06/08 03:43:03;;;;;;;5.20;2.83;;;;;;;14.75;100.00;100687.44;4972157;28;20053;-70
2023/06/08 03:45:28;;;;;;;4.30;2.83;;;;;;;14.57;100.00;100643.63;4979924;28;20037;-72
2023/06/08 03:47:55;;;;;;;7.25;3.67;;;;;;;14.24;100.00;100563.06;4984832;28;20050;-72
2023/06/08 03:50:21;;;;;;;5.15;2.72;;;;;;;14.84;100.00;100658.22;4975602;28;20080;-74
2023/06/08 03:52:46;;;;;;;6.95;3.22;;;;;;;15.02;100.00;100685.31;4977911;28;20526;-71
2023/06/08 03:55:12;;;;;;;8.88;3.17;;;;;;;14.85;100.00;100656.47;4979820;28;20050;-71
2023/06/08 03:57:39;;;;;;;5.00;2.75;;;;;;;14.44;100.00;100560.13;4978474;28;20080;-73
2023/06/08 04:00:07;;;;;;;4.32;3.03;;;;;;;15.16;100.00;100665.69;4982783;28;20396;-71
2023/06/08 04:02:32;;;;;;;7.18;3.47;;;;;;;15.35;100.00;100689.22;4983981;28;20117;-71
2023/06/08 04:04:59;;;;;;;7.05;3.28;;;;;;;15.45;100.00;100690.81;4986009;28;20633;-71
2023/06/08 04:07:24;;;;;;;5.28;3.35;;;;;;;14.67;100.00;100544.00;4980066;28;20181;-72
2023/06/08 04:09:50;;;;;;;3.15;2.20;;;;;;;14.88;100.00;100607.09;4975149;28;20062;-73
2023/06/08 04:12:15;;;;;;;4.43;2.53;;;;;;;14.77;100.00;100559.72;4975233;28;20031;-71
2023/06/08 04:14:41;;;;;;;5.50;3.35;;;;;;;15.61;100.00;100686.16;4983950;28;20549;-72
2023/06/08 04:17:07;;;;;;;5.60;3.80;;;;;;;15.64;100.00;100672.91;4979964;28;20049;-72
2023/06/08 04:19:33;;;;;;;5.93;3.40;;;;;;;15.74;100.00;100666.56;5010956;28;20137;-74
2023/06/08 04:21:59;;;;;;;5.18;3.30;;;;;;;16.07;100.00;100698.63;4981867;28;20430;-71
2023/06/08 04:24:25;;;;;;;7.95;3.65;;;;;;;15.73;100.00;100658.66;4980597;28;20398;-71
2023/06/08 04:26:51;;;;;;;8.10;2.17;;;;;;;15.90;100.00;100656.59;4979866;28;20141;-70
2023/06/08 04:29:17;;;;;;;4.15;2.80;;;;;;;15.72;100.00;100619.88;4979535;28;20387;-71
2023/06/08 04:31:43;;;;;;;4.22;2.53;;;;;;;16.22;100.00;100693.06;4977189;28;20406;-70
2023/06/08 04:34:09;;;;;;;5.53;3.33;;;;;;;16.29;100.00;100690.28;4980434;28;20042;-71
2023/06/08 04:36:34;;;;;;;7.10;2.70;;;;;;;16.42;100.00;100711.22;4993177;28;20042;-72
2023/06/08 04:39:01;;;;;;;5.28;3.97;;;;;;;15.94;100.00;100575.34;4979438;28;20392;-71
2023/06/08 04:41:28;;;;;;;4.13;2.50;;;;;;;16.62;100.00;100707.28;4978241;28;20431;-71
2023/06/08 04:43:54;;;;;;;5.13;2.50;;;;;;;16.21;100.00;100603.06;5012812;28;20057;-72
2023/06/08 04:46:25;;;;;;;4.80;2.40;;;;;;;16.16;100.00;100597.00;4975298;28;20418;-72
2023/06/08 04:48:51;;;;;;;7.93;3.10;;;;;;;16.51;100.00;100608.66;4980680;28;20064;-73
2023/06/08 04:51:17;;;;;;;5.25;3.42;;;;;;;17.25;100.00;100701.53;4977162;28;20769;-72
2023/06/08 04:53:43;;;;;;;4.60;2.67;;;;;;;17.00;100.00;100650.88;4979402;28;20109;-71
2023/06/08 04:56:18;;;;;;;7.55;2.45;;;;;;;17.02;100.00;100674.66;4975748;28;20463;-73
2023/06/08 04:58:45;;;;;;;7.65;2.42;;;;;;;16.97;100.00;100665.94;4977972;28;20149;-72
2023/06/08 05:01:10;;;;;;;5.70;2.72;;;;;;;17.65;100.00;100692.66;4976278;28;20058;-71
2023/06/08 05:03:36;;;;;;;4.10;2.40;;;;;;;17.68;100.00;100681.09;4977402;28;20074;-75
2023/06/08 05:06:01;;;;;;;5.18;2.17;;;;;;;17.82;100.00;100625.03;4978098;28;20068;-70
2023/06/08 05:08:27;;;;;;;4.13;2.25;;;;;;;18.26;100.00;100707.91;4981827;28;20066;-71
2023/06/08 05:10:52;;;;;;;12.40;3.13;;;;;;;18.87;100.00;100694.72;4973528;28;20418;-72
2023/06/08 05:13:18;;;;;;;5.70;2.72;;;;;;;18.81;100.00;100711.72;4981793;28;20050;-72
2023/06/08 05:15:43;;;;;;;3.22;2.03;;;;;;;18.67;100.00;100711.22;4977710;28;20034;-75
2023/06/08 05:18:09;;;;;;;4.60;2.53;;;;;;;18.84;100.00;100708.09;4977631;28;20506;-72
2023/06/08 05:20:34;;;;;;;14.10;2.42;;;;;;;18.13;100.00;100598.50;4975209;28;20062;-71
2023/06/08 05:23:00;;;;;;;2.28;1.38;;;;;;;19.31;100.00;100725.28;4975375;28;20629;-71
2023/06/08 05:25:36;;;;;;;3.88;2.30;;;;;;;18.73;100.00;100623.31;4968371;28;20061;-71
2023/06/08 05:28:03;;;;;;;3.85;2.47;;;;;;;18.50;100.00;100600.97;4971640;28;20054;-73
2023/06/08 05:30:28;;;;;;;7.30;2.47;;;;;;;19.76;100.00;100710.56;4971148;28;20549;-73
2023/06/08 05:32:55;;;;;;;2.88;1.52;;;;;;;19.58;100.00;100704.91;4972757;28;20046;-73
2023/06/08 05:35:21;;;;;;;5.45;2.63;;;;;;;19.58;100.00;100680.09;4987667;28;20042;-72
2023/06/08 05:37:46;;;;;;;2.47;1.80;;;;;;;19.36;100.00;100662.16;4981661;28;20061;-73
2023/06/08 05:40:12;;;;;;;3.30;1.83;;;;;;;19.78;100.00;100656.38;4974590;28;20074;-72
2023/06/08 05:42:37;;;;;;;2.92;1.75;;;;;;;19.89;100.00;100740.34;4972778;28;20050;-73
2023/06/08 05:45:03;;;;;;;3.83;2.17;;;;;;;19.96;100.00;100737.41;4975354;28;20030;-72
2023/06/08 05:47:47;;;;;;;4.70;1.75;;;;;;;20.37;100.00;100740.47;4973806;28;20046;-73
2023/06/08 05:50:12;;;;;;;11.13;2.72;;;;;;;19.55;100.00;100699.69;4972634;28;20046;-76
2023/06/08 05:52:38;;;;;;;5.90;2.10;;;;;;;20.41;100.00;100602.59;4973887;28;20942;-74
2023/06/08 05:55:05;;;;;;;3.83;1.95;;;;;;;21.84;100.00;100741.13;4983127;28;20309;-75
2023/06/08 05:57:33;;;;;;;6.13;2.20;;;;;;;21.77;100.00;100735.16;4979753;28;20030;-76
2023/06/08 05:59:58;;;;;;;2.42;1.60;;;;;;;21.57;100.00;100727.13;5001276;28;20069;-74
2023/06/08 06:02:24;;;;;;;3.97;2.30;;;;;;;21.27;100.00;100660.63;4975434;28;20042;-75
2023/06/08 06:04:50;;;;;;;3.33;2.05;;;;;;;20.43;100.00;100596.28;4980520;28;20050;-75
2023/06/08 06:07:15;;;;;;;2.22;1.27;;;;;;;22.22;100.00;100760.03;4979669;28;20049;-76
2023/06/08 06:09:41;;;;;;;5.88;2.10;;;;;;;22.27;100.00;100742.88;4978315;28;20110;-76
2023/06/08 06:12:07;;;;;;;3.65;2.03;;;;;;;21.24;100.00;100775.53;4973592;28;20031;-74
2023/06/08 06:14:38;;;;;;;2.60;1.17;;;;;;;20.39;100.00;100652.41;4977892;28;20058;-76
2023/06/08 06:17:05;;;;;;;5.68;3.15;;;;;;;21.48;100.00;100755.03;4978135;28;20039;-74
2023/06/08 06:19:36;;;;;;;2.13;1.25;;;;;;;22.46;100.00;100761.66;4976350;28;20128;-76
2023/06/08 06:22:02;;;;;;;2.70;1.38;;;;;;;22.17;100.00;100757.53;4982457;28;20066;-75
2023/06/08 06:24:29;;;;;;;3.38;1.67;;;;;;;21.46;100.00;100682.13;4985149;28;20034;-75
2023/06/08 06:26:54;;;;;;;2.85;1.45;;;;;;;22.06;100.00;100749.13;4984003;28;20058;-75
2023/06/08 06:29:20;;;;;;;2.17;1.13;;;;;;;21.70;100.00;100702.50;4979591;28;20046;-74
2023/06/08 06:31:45;;;;;;;3.97;1.83;;;;;;;21.63;100.00;100655.63;4983914;28;20498;-76
2023/06/08 06:34:11;;;;;;;5.15;1.58;;;;;;;21.14;100.00;100681.63;4978717;28;20058;-75
2023/06/08 06:36:36;;;;;;;4.57;1.27;;;;;;;21.31;100.00;100600.00;4983563;28;20019;-76
2023/06/08 06:39:02;;;;;;;3.67;1.45;;;;;;;22.21;100.00;100783.22;5015828;28;20042;-76
2023/06/08 06:41:27;;;;;;;2.47;1.05;;;;;;;22.36;100.00;100743.41;4976982;28;20803;-75
2023/06/08 06:43:53;;;;;;;1.55;1.13;;;;;;;22.12;100.00;100674.91;4981378;28;20058;-75
2023/06/08 06:46:20;;;;;;;3.03;1.42;;;;;;;22.89;100.00;100770.44;4986497;28;20049;-76
2023/06/08 06:48:46;;;;;;;3.60;1.67;;;;;;;23.01;100.00;100747.63;4985299;28;20405;-75
2023/06/08 06:51:11;;;;;;;4.00;1.55;;;;;;;22.73;100.00;100697.16;4986873;28;20035;-76
2023/06/08 06:53:36;;;;;;;2.28;1.20;;;;;;;22.36;100.00;100730.94;4987243;28;20498;-76
2023/06/08 06:56:02;;;;;;;2.63;1.45;;;;;;;22.70;100.00;100699.97;4987653;28;20145;-76
2023/06/08 06:58:28;;;;;;;1.63;0.90;;;;;;;23.21;100.00;100748.53;4987160;28;20042;-74
2023/06/08 07:00:55;;;;;;;5.10;1.90;;;;;;;23.21;100.00;100759.22;4985726;28;20046;-75
2023/06/08 07:03:21;;;;;;;2.05;1.02;;;;;;;23.14;100.00;100759.50;4982129;28;20129;-75
2023/06/08 07:05:47;;;;;;;3.95;1.15;;;;;;;22.59;100.00;100663.00;4980834;28;20038;-76
2023/06/08 07:08:13;;;;;;;1.00;0.60;;;;;;;22.05;100.00;100758.06;5001576;28;20117;-75
2023/06/08 07:10:38;;;;;;;3.10;1.73;;;;;;;21.46;100.00;100666.97;4984121;28;20038;-76
2023/06/08 07:13:04;;;;;;;4.75;1.52;;;;;;;22.52;100.00;100749.81;4980483;28;20456;-75
2023/06/08 07:15:30;;;;;;;4.13;1.38;;;;;;;22.78;100.00;100705.88;4980627;28;20031;-74
2023/06/08 07:17:55;;;;;;;3.08;1.23;;;;;;;23.32;100.00;100722.97;4975233;28;20132;-74
2023/06/08 07:20:21;;;;;;;2.50;0.98;;;;;;;22.55;93.46;100648.94;4988549;28;20050;-75
2023/06/08 07:22:46;;;;;;;3.70;1.60;;;;;;;22.13;100.00;100681.09;4986496;28;20054;-76
2023/06/08 07:25:14;;;;;;;3.03;1.48;;;;;;;22.90;96.49;100752.59;4986920;28;20478;-75
2023/06/08 07:27:39;;;;;;;2.78;1.30;;;;;;;22.17;99.85;100661.28;4985579;28;20034;-75
2023/06/08 07:30:06;;;;;;;3.20;1.80;;;;;;;22.92;96.46;100740.88;4986026;28;20097;-76
2023/06/08 07:32:32;;;;;;;3.15;1.27;;;;;;;22.91;87.38;100736.44;4978193;28;20065;-75
2023/06/08 07:34:58;;;;;;;4.57;1.48;;;;;;;23.05;90.38;100725.13;4980445;28;20051;-74
2023/06/08 07:37:23;;;;;;;2.70;1.17;;;;;;;22.84;88.70;100665.41;4979001;28;20046;-74
2023/06/08 07:39:49;;;;;;;3.78;1.63;;;;;;;23.92;86.24;100728.06;4981851;28;20042;-76
2023/06/08 07:42:15;;;;;;;3.20;1.13;;;;;;;23.66;84.07;100675.75;4984236;28;20490;-74
2023/06/08 07:44:41;;;;;;;3.53;1.92;;;;;;;23.96;82.83;100710.91;4981352;28;20851;-75
2023/06/08 07:47:06;;;;;;;2.13;1.17;;;;;;;23.36;75.35;100726.34;4986142;28;20054;-76
2023/06/08 07:49:32;;;;;;;2.63;1.38;;;;;;;23.29;76.40;100733.81;4986204;28;20042;-76
2023/06/08 07:51:57;;;;;;;3.00;1.45;;;;;;;23.67;70.03;100695.38;4982805;28;20050;-75
2023/06/08 07:54:24;;;;;;;2.85;1.23;;;;;;;23.39;68.36;100721.72;4984580;28;20061;-74
2023/06/08 07:56:50;;;;;;;2.65;1.20;;;;;;;23.74;66.03;100716.47;4978224;28;20043;-74
2023/06/08 07:59:16;;;;;;;2.72;1.17;;;;;;;22.95;66.76;100635.50;4981953;28;20054;-77
2023/06/08 08:01:42;;;;;;;1.95;1.35;;;;;;;24.56;63.10;100740.00;4987061;28;20038;-74
2023/06/08 08:04:09;;;;;;;2.15;1.38;;;;;;;23.80;60.20;100608.09;4986592;28;20408;-75
2023/06/08 08:06:34;;;;;;;2.47;1.15;;;;;;;23.91;60.38;100712.94;4983779;28;20053;-75
2023/06/08 08:09:00;;;;;;;3.40;1.83;;;;;;;24.21;63.48;100630.06;4987130;28;20027;-75
2023/06/08 08:11:27;;;;;;;2.60;1.35;;;;;;;22.62;63.04;100472.09;4980847;28;20398;-77
2023/06/08 08:13:54;;;;;;;2.10;0.98;;;;;;;23.17;63.64;100662.09;4983009;28;20058;-75
2023/06/08 08:16:20;;;;;;;3.20;1.77;;;;;;;23.68;64.46;100689.94;4984184;28;20101;-76
2023/06/08 08:18:46;;;;;;;3.70;1.70;;;;;;;23.68;58.75;100568.50;4984667;28;20038;-76
2023/06/08 08:21:11;;;;;;;2.40;1.17;;;;;;;24.32;58.05;100566.91;4986930;28;20124;-76
2023/06/08 08:23:38;;;;;;;1.45;0.75;;;;;;;25.45;58.04;100720.81;4982393;28;20402;-75
2023/06/08 08:26:03;;;;;;;1.58;0.95;;;;;;;25.41;55.78;100720.13;4972818;28;20069;-74
2023/06/08 08:28:29;;;;;;;2.08;1.17;;;;;;;25.50;57.41;100724.13;4978248;28;20145;-75
2023/06/08 08:30:55;;;;;;;2.47;1.10;;;;;;;25.57;53.56;100676.28;4983780;28;20054;-75
2023/06/08 08:33:20;;;;;;;3.88;1.90;;;;;;;25.43;52.25;100634.09;4974698;28;20171;-75
2023/06/08 08:35:45;;;;;;;2.33;0.95;;;;;;;25.21;51.42;100578.91;4982706;28;20055;-77
2023/06/08 08:38:11;;;;;;;3.05;1.17;;;;;;;24.38;53.18;100502.22;4981265;28;20035;-76
2023/06/08 08:40:37;;;;;;;3.60;1.48;;;;;;;25.73;52.54;100631.41;4980394;28;20126;-74
2023/06/08 08:43:08;;;;;;;2.90;1.55;;;;;;;26.49;51.49;100717.34;4980135;28;20565;-75
2023/06/08 08:45:35;;;;;;;2.03;1.27;;;;;;;25.16;50.35;100633.81;4984318;28;20026;-65
2023/06/08 08:48:01;;;;;;;4.40;1.63;;;;;;;25.39;50.87;100705.94;4983633;28;20050;-66
2023/06/08 08:50:28;;;;;;;9.15;6.78;;;;;;;26.03;57.81;100692.38;4984538;28;20054;-65
2023/06/08 08:52:56;;;;;;;4.00;0.98;;;;;;;26.16;51.02;100698.75;4983988;28;20057;-66
2023/06/08 08:55:27;;;;;;;10.23;3.97;;;;;;;26.89;52.05;100714.88;4984193;28;20061;-65
2023/06/08 08:58:02;;;;;;;5.28;1.73;;;;;;;26.25;48.96;100694.66;4977279;28;20117;-66
2023/06/08 09:00:31;;;;;;;3.13;1.67;;;;;;;25.96;47.04;100624.66;4977265;28;20046;-66
2023/06/08 09:02:56;;;;;;;5.47;3.10;;;;;;;27.28;50.12;100705.25;4984909;28;20490;-66
2023/06/08 09:05:22;;;;;;;2.50;1.92;;;;;;;26.75;46.01;100714.91;4979750;28;20065;-66
2023/06/08 09:07:47;;;;;;;2.78;0.98;;;;;;;27.26;46.81;100685.63;4979189;28;20939;-66
2023/06/08 09:10:18;;;;;;;4.80;3.00;;;;;;;27.92;48.95;100713.59;4980570;28;20045;-66
2023/06/08 09:12:48;;;;;;;2.17;1.38;;;;;;;25.59;45.75;100710.16;4980164;28;20490;-66
2023/06/08 09:15:37;;;;;;;4.50;3.03;;;;;;;26.73;47.76;100688.06;4983082;28;20406;-66
2023/06/08 09:18:15;;;;;;;2.92;1.13;;;;;;;26.16;48.28;100701.44;4981407;28;20176;-66
2023/06/08 09:20:41;;;;;;;2.05;1.10;;;;;;;25.68;46.77;100706.06;4978470;28;20034;-65
2023/06/08 09:23:16;;;;;;;2.67;1.65;;;;;;;27.49;47.14;100705.66;4984914;28;20097;-65
2023/06/08 09:25:42;;;;;;;4.65;2.95;;;;;;;28.17;46.25;100698.44;4981303;28;20509;-66
2023/06/08 09:28:22;;;;;;;2.10;1.48;;;;;;;27.12;45.84;100697.25;4983434;28;20042;-65
2023/06/08 09:30:50;;;;;;;5.00;2.42;;;;;;;27.96;45.83;100698.09;4981254;28;20513;-64
2023/06/08 09:33:32;;;;;;;1.55;0.93;;;;;;;27.10;45.23;100692.94;4983324;28;20056;-65
2023/06/08 09:35:58;;;;;;;1.90;1.17;;;;;;;26.38;44.51;100633.72;4979766;28;20405;-65
2023/06/08 09:38:26;;;;;;;1.95;1.05;;;;;;;26.25;44.40;100544.84;4975682;28;20051;-66
2023/06/08 09:41:15;;;;;;;1.90;1.13;;;;;;;26.68;44.69;100640.88;4989931;28;20133;-66
2023/06/08 09:43:45;;;;;;;3.45;1.98;;;;;;;27.54;45.67;100622.66;4977673;28;20046;-65
2023/06/08 09:46:35;;;;;;;3.63;1.48;;;;;;;28.48;44.60;100693.63;4982344;28;20085;-65
2023/06/08 09:49:05;;;;;;;2.28;1.65;;;;;;;26.90;43.89;100600.81;4977519;28;20497;-66
2023/06/08 09:51:34;;;;;;;3.92;1.33;;;;;;;28.21;44.48;100670.25;4986218;28;20030;-65
2023/06/08 09:54:00;;;;;;;0.98;0.60;;;;;;;28.33;43.20;100653.22;4980257;28;20054;-66
2023/06/08 09:56:28;;;;;;;2.65;1.58;;;;;;;26.62;44.67;100600.88;4979026;28;20030;-64
2023/06/08 09:58:56;;;;;;;2.80;1.85;;;;;;;27.84;43.59;100604.50;4979621;28;20162;-64
2023/06/08 10:01:31;;;;;;;3.22;1.20;;;;;;;26.50;43.01;100576.44;4981360;28;20083;-65
2023/06/08 10:03:59;;;;;;;2.58;1.38;;;;;;;28.68;42.04;100648.97;4982569;28;20054;-65
2023/06/08 10:06:26;;;;;;;2.97;1.30;;;;;;;27.70;42.86;100667.47;4981845;28;20367;-65
2023/06/08 10:08:55;;;;;;;2.03;1.13;;;;;;;28.91;42.82;100629.25;4978733;28;20085;-66
2023/06/08 10:11:22;;;;;;;1.63;1.08;;;;;;;26.93;43.24;100544.06;4978592;28;20669;-68
2023/06/08 10:13:49;;;;;;;2.35;1.30;;;;;;;28.72;41.59;100655.91;4983783;28;20042;-65
2023/06/08 10:16:16;;;;;;;3.20;2.33;;;;;;;28.05;40.95;100640.78;4981155;28;20042;-66
2023/06/08 10:18:43;;;;;;;4.97;4.53;;;;;;;28.20;42.16;100611.84;4975527;28;20106;-65
2023/06/08 10:21:09;;;;;;;3.65;1.75;;;;;;;29.24;41.57;100630.47;4980767;28;20042;-66
2023/06/08 10:23:36;;;;;;;1.50;0.80;;;;;;;26.86;42.91;100631.59;4979105;28;20133;-67
2023/06/08 10:26:04;;;;;;;1.30;0.80;;;;;;;27.03;42.90;100595.50;4976777;28;20091;-66
2023/06/08 10:28:29;;;;;;;1.60;0.95;;;;;;;28.60;42.40;100609.03;4982018;28;20054;-66
2023/06/08 10:30:55;;;;;;;6.47;1.85;;;;;;;28.08;41.69;100624.38;4981660;28;20153;-66
2023/06/08 10:33:24;;;;;;;1.60;1.05;;;;;;;28.14;41.94;100594.28;4984161;28;20187;-66
2023/06/08 10:36:10;;;;;;;1.52;0.93;;;;;;;27.91;40.82;100546.44;4978418;28;20043;-65
2023/06/08 10:38:53;;;;;;;1.00;0.82;;;;;;;28.01;42.92;100550.25;4997164;28;20389;-65
2023/06/08 10:41:41;;;;;;;3.85;1.20;;;;;;;28.07;41.77;100613.69;4976856;28;20130;-66
2023/06/08 10:44:31;;;;;;;1.60;0.82;;;;;;;27.05;43.43;100606.16;4976144;28;20046;-66
2023/06/08 10:47:02;;;;;;;1.95;0.75;;;;;;;27.29;42.72;100611.78;4970737;28;20765;-65
2023/06/08 10:49:31;;;;;;;2.05;1.10;;;;;;;26.90;42.67;100521.84;4972468;28;20051;-65
2023/06/08 10:51:58;;;;;;;2.47;1.70;;;;;;;26.81;40.65;100601.44;4976287;28;20069;-65
2023/06/08 10:54:24;;;;;;;2.10;1.02;;;;;;;26.76;40.93;100533.53;4981430;28;20058;-65
2023/06/08 10:56:52;;;;;;;2.63;0.85;;;;;;;27.04;40.09;100583.75;4977839;28;20050;-67
2023/06/08 10:59:33;;;;;;;2.40;1.30;;;;;;;26.98;40.69;100503.34;4983122;28;20515;-65
2023/06/08 11:02:03;;;;;;;2.35;1.73;;;;;;;26.92;40.93;100561.16;4972387;28;20120;-64
2023/06/08 11:04:30;;;;;;;2.92;1.23;;;;;;;27.72;39.87;100484.81;4984654;28;20034;-64
2023/06/08 11:06:59;;;;;;;1.92;1.17;;;;;;;28.39;39.87;100546.63;4980658;28;20479;-65
2023/06/08 11:09:25;;;;;;;2.75;1.00;;;;;;;28.85;40.40;100574.84;4977799;28;20141;-67
2023/06/08 11:11:51;;;;;;;2.83;1.63;;;;;;;28.37;39.92;100478.38;4980644;28;20205;-66
2023/06/08 11:14:21;;;;;;;3.50;0.82;;;;;;;27.27;40.84;100485.22;4982716;28;20511;-65
2023/06/08 11:16:56;;;;;;;2.03;1.83;;;;;;;27.00;41.59;100406.28;4976831;28;20054;-66
2023/06/08 11:19:24;;;;;;;2.42;1.25;;;;;;;28.59;42.24;100561.41;4981446;28;20051;-67
2023/06/08 11:21:51;;;;;;;2.40;1.23;;;;;;;27.72;41.34;100566.59;4979091;28;20038;-66
2023/06/08 11:24:20;;;;;;;2.85;1.45;;;;;;;28.18;40.62;100486.97;4984071;28;20038;-67